sensor_id;sensor_type;location;lat;lon;timestamp;pressure;altitude;pressure_sealevel;temperature;humidity
12182;BME280;6154;51.550;12.138;2022-12-18T00:50:29;102121.66;;;-0.65;59.42
12182;BME280;6154;51.550;12.138;2022-12-18T00:53:03;102120.75;;;-0.69;59.65
12182;BME280;6154;51.550;12.138;2022-12-18T00:55:39;102120.75;;;-0.69;59.55
12182;BME280;6154;51.550;12.138;2022-12-18T00:58:09;102117.28;;;-0.69;59.59
12182;BME280;6154;51.550;12.138;2022-12-18T01:00:38;102110.25;;;-0.72;59.34
12182;BME280;6154;51.550;12.138;2022-12-18T01:03:12;102122.31;;;-0.77;59.24
12182;BME280;6154;51.550;12.138;2022-12-18T01:05:44;102122.19;;;-0.83;59.33
12182;BME280;6154;51.550;12.138;2022-12-18T01:08:12;102134.31;;;-0.83;59.42
12182;BME280;6154;51.550;12.138;2022-12-18T01:10:42;102129.94;;;-0.86;59.42
12182;BME280;6154;51.550;12.138;2022-12-18T01:13:11;102134.22;;;-0.88;59.36
12182;BME280;6154;51.550;12.138;2022-12-18T01:15:48;102128.94;;;-0.91;59.35
12182;BME280;6154;51.550;12.138;2022-12-18T01:18:17;102129.78;;;-0.92;59.40
12182;BME280;6154;51.550;12.138;2022-12-18T01:20:46;102128.03;;;-0.95;59.41
12182;BME280;6154;51.550;12.138;2022-12-18T01:23:14;102132.31;;;-0.97;59.42
12182;BME280;6154;51.550;12.138;2022-12-18T01:25:43;102134.91;;;-0.97;59.46
12182;BME280;6154;51.550;12.138;2022-12-18T01:28:11;102144.41;;;-0.99;59.36
12182;BME280;6154;51.550;12.138;2022-12-18T01:30:40;102146.06;;;-1.02;59.29
12182;BME280;6154;51.550;12.138;2022-12-18T01:33:08;102147.75;;;-1.04;59.46
12182;BME280;6154;51.550;12.138;2022-12-18T01:35:40;102157.22;;;-1.08;59.50
12182;BME280;6154;51.550;12.138;2022-12-18T01:38:12;102151.94;;;-1.11;59.54
12182;BME280;6154;51.550;12.138;2022-12-18T01:40:40;102153.72;;;-1.10;59.57
12182;BME280;6154;51.550;12.138;2022-12-18T01:43:09;102149.38;;;-1.09;59.65
12182;BME280;6154;51.550;12.138;2022-12-18T01:45:37;102155.50;;;-1.06;59.74
12182;BME280;6154;51.550;12.138;2022-12-18T01:48:09;102152.88;;;-1.07;59.78
12182;BME280;6154;51.550;12.138;2022-12-18T01:50:40;102152.94;;;-1.04;59.85
12182;BME280;6154;51.550;12.138;2022-12-18T01:53:13;102161.63;;;-1.02;59.95
12182;BME280;6154;51.550;12.138;2022-12-18T01:55:45;102163.50;;;-0.97;59.91
12182;BME280;6154;51.550;12.138;2022-12-18T01:58:15;102165.13;;;-1.00;59.71
12182;BME280;6154;51.550;12.138;2022-12-18T02:00:45;102174.62;;;-1.02;59.85
12182;BME280;6154;51.550;12.138;2022-12-18T02:03:15;102168.47;;;-1.07;59.87
12182;BME280;6154;51.550;12.138;2022-12-18T02:05:49;102180.50;;;-1.11;59.96
12182;BME280;6154;51.550;12.138;2022-12-18T02:08:27;102179.69;;;-1.10;59.93
12182;BME280;6154;51.550;12.138;2022-12-18T02:11:07;102178.84;;;-1.09;59.93
12182;BME280;6154;51.550;12.138;2022-12-18T02:13:43;102173.56;;;-1.10;59.86
12182;BME280;6154;51.550;12.138;2022-12-18T02:16:23;102167.56;;;-1.09;60.04
12182;BME280;6154;51.550;12.138;2022-12-18T02:18:57;102172.78;;;-1.08;60.02
12182;BME280;6154;51.550;12.138;2022-12-18T02:21:36;102171.09;;;-1.06;59.87
12182;BME280;6154;51.550;12.138;2022-12-18T02:24:18;102169.34;;;-1.07;59.75
12182;BME280;6154;51.550;12.138;2022-12-18T02:27:01;102170.09;;;-1.11;59.58
12182;BME280;6154;51.550;12.138;2022-12-18T02:29:36;102169.16;;;-1.16;59.49
12182;BME280;6154;51.550;12.138;2022-12-18T02:32:10;102176.81;;;-1.21;59.58
12182;BME280;6154;51.550;12.138;2022-12-18T02:34:45;102179.28;;;-1.28;59.49
12182;BME280;6154;51.550;12.138;2022-12-18T02:37:16;102180.91;;;-1.32;59.44
12182;BME280;6154;51.550;12.138;2022-12-18T02:39:48;102185.16;;;-1.37;59.60
12182;BME280;6154;51.550;12.138;2022-12-18T02:42:19;102175.69;;;-1.33;59.83
12182;BME280;6154;51.550;12.138;2022-12-18T02:44:49;102170.59;;;-1.30;59.80
12182;BME280;6154;51.550;12.138;2022-12-18T02:47:22;102171.47;;;-1.30;59.67
12182;BME280;6154;51.550;12.138;2022-12-18T03:48:46;102207.00;;;-3.24;57.53
12182;BME280;6154;51.550;12.138;2022-12-18T03:51:24;102198.78;;;-3.39;57.32
12182;BME280;6154;51.550;12.138;2022-12-18T03:53:58;102199.34;;;-3.50;57.18
12182;BME280;6154;51.550;12.138;2022-12-18T03:56:31;102203.37;;;-3.58;57.12
12182;BME280;6154;51.550;12.138;2022-12-18T03:59:01;102196.97;;;-3.70;56.72
12182;BME280;6154;51.550;12.138;2022-12-18T04:01:34;102192.31;;;-3.81;56.80
12182;BME280;6154;51.550;12.138;2022-12-18T04:04:05;102193.88;;;-3.86;57.10
12182;BME280;6154;51.550;12.138;2022-12-18T04:06:35;102188.56;;;-3.90;57.08
12182;BME280;6154;51.550;12.138;2022-12-18T04:09:06;102188.56;;;-3.90;57.48
12182;BME280;6154;51.550;12.138;2022-12-18T04:11:35;102181.50;;;-3.94;57.32
12182;BME280;6154;51.550;12.138;2022-12-18T04:14:03;102178.00;;;-3.96;57.65
12182;BME280;6154;51.550;12.138;2022-12-18T04:16:33;102179.66;;;-3.98;57.63
12182;BME280;6154;51.550;12.138;2022-12-18T04:19:02;102182.25;;;-3.98;58.09
12182;BME280;6154;51.550;12.138;2022-12-18T04:21:35;102183.19;;;-3.96;58.42
12182;BME280;6154;51.550;12.138;2022-12-18T04:24:04;102186.50;;;-4.00;57.91
12182;BME280;6154;51.550;12.138;2022-12-18T04:26:34;102185.38;;;-4.09;57.39
12182;BME280;6154;51.550;12.138;2022-12-18T04:29:03;102189.31;;;-4.20;56.91
12182;BME280;6154;51.550;12.138;2022-12-18T04:31:31;102188.22;;;-4.26;57.07
12182;BME280;6154;51.550;12.138;2022-12-18T04:34:00;102186.22;;;-4.34;57.21
12182;BME280;6154;51.550;12.138;2022-12-18T04:36:36;102180.19;;;-4.34;57.27
12182;BME280;6154;51.550;12.138;2022-12-18T04:39:04;102185.25;;;-4.37;57.23
12182;BME280;6154;51.550;12.138;2022-12-18T04:41:35;102175.50;;;-4.46;56.63
12182;BME280;6154;51.550;12.138;2022-12-18T04:44:25;102161.47;;;-4.52;57.06
12182;BME280;6154;51.550;12.138;2022-12-18T04:46:54;102162.22;;;-4.56;57.35
12182;BME280;6154;51.550;12.138;2022-12-18T04:49:23;102159.16;;;-4.70;56.36
12182;BME280;6154;51.550;12.138;2022-12-18T04:51:52;102160.44;;;-4.81;56.57
12182;BME280;6154;51.550;12.138;2022-12-18T04:54:28;102173.34;;;-4.81;57.43
12182;BME280;6154;51.550;12.138;2022-12-18T04:57:00;102180.41;;;-4.77;57.81
12182;BME280;6154;51.550;12.138;2022-12-18T04:59:31;102167.59;;;-4.74;57.90
12182;BME280;6154;51.550;12.138;2022-12-18T05:02:08;102171.25;;;-4.69;58.35
12182;BME280;6154;51.550;12.138;2022-12-18T05:04:39;102182.53;;;-4.66;58.18
12182;BME280;6154;51.550;12.138;2022-12-18T05:07:11;102180.09;;;-4.61;58.45
12182;BME280;6154;51.550;12.138;2022-12-18T05:09:50;102179.13;;;-4.65;57.78
12182;BME280;6154;51.550;12.138;2022-12-18T05:12:22;102187.47;;;-4.72;57.44
12182;BME280;6154;51.550;12.138;2022-12-18T05:14:59;102191.66;;;-4.75;57.47
12182;BME280;6154;51.550;12.138;2022-12-18T05:17:36;102198.38;;;-4.80;57.26
12182;BME280;6154;51.550;12.138;2022-12-18T05:20:30;102193.84;;;-4.86;57.40
12182;BME280;6154;51.550;12.138;2022-12-18T05:23:00;102194.62;;;-4.88;57.41
12182;BME280;6154;51.550;12.138;2022-12-18T05:25:28;102195.38;;;-4.91;57.43
12182;BME280;6154;51.550;12.138;2022-12-18T05:27:57;102211.69;;;-4.92;57.06
12182;BME280;6154;51.550;12.138;2022-12-18T05:30:30;102210.75;;;-4.94;56.99
12182;BME280;6154;51.550;12.138;2022-12-18T05:33:00;102208.03;;;-4.99;56.60
12182;BME280;6154;51.550;12.138;2022-12-18T05:35:29;102212.87;;;-5.06;56.44
12182;BME280;6154;51.550;12.138;2022-12-18T05:37:57;102218.78;;;-5.10;56.48
12182;BME280;6154;51.550;12.138;2022-12-18T05:40:28;102225.53;;;-5.12;56.38
12182;BME280;6154;51.550;12.138;2022-12-18T05:42:57;102216.78;;;-5.17;56.52
12182;BME280;6154;51.550;12.138;2022-12-18T05:45:36;102214.09;;;-5.21;56.44
12182;BME280;6154;51.550;12.138;2022-12-18T05:48:07;102218.06;;;-5.29;56.18
12182;BME280;6154;51.550;12.138;2022-12-18T05:50:37;102215.28;;;-5.33;56.34
12182;BME280;6154;51.550;12.138;2022-12-18T05:53:08;102222.09;;;-5.35;56.26
12182;BME280;6154;51.550;12.138;2022-12-18T05:55:40;102222.00;;;-5.38;56.31
12182;BME280;6154;51.550;12.138;2022-12-18T05:58:12;102229.59;;;-5.41;56.31
12182;BME280;6154;51.550;12.138;2022-12-18T06:00:44;102235.50;;;-5.44;56.20
12182;BME280;6154;51.550;12.138;2022-12-18T06:03:13;102227.66;;;-5.47;56.19
12182;BME280;6154;51.550;12.138;2022-12-18T06:05:45;102221.62;;;-5.47;56.45
12182;BME280;6154;51.550;12.138;2022-12-18T06:08:20;102218.84;;;-5.52;56.34
12182;BME280;6154;51.550;12.138;2022-12-18T06:10:53;102221.16;;;-5.60;55.92
12182;BME280;6154;51.550;12.138;2022-12-18T06:13:22;102227.63;;;-5.69;55.83
12182;BME280;6154;51.550;12.138;2022-12-18T06:15:50;102232.53;;;-5.75;55.75
12182;BME280;6154;51.550;12.138;2022-12-18T06:18:19;102240.00;;;-5.82;55.79
12182;BME280;6154;51.550;12.138;2022-12-18T06:20:54;102245.16;;;-5.82;56.17
12182;BME280;6154;51.550;12.138;2022-12-18T06:23:25;102241.84;;;-5.79;56.51
12182;BME280;6154;51.550;12.138;2022-12-18T06:25:55;102247.13;;;-5.76;56.84
12182;BME280;6154;51.550;12.138;2022-12-18T06:28:24;102249.75;;;-5.74;57.25
12182;BME280;6154;51.550;12.138;2022-12-18T06:30:54;102247.22;;;-5.73;57.08
12182;BME280;6154;51.550;12.138;2022-12-18T06:33:26;102249.97;;;-5.70;57.22
12182;BME280;6154;51.550;12.138;2022-12-18T06:36:00;102241.41;;;-5.69;56.86
12182;BME280;6154;51.550;12.138;2022-12-18T06:38:35;102239.56;;;-5.71;56.80
12182;BME280;6154;51.550;12.138;2022-12-18T06:41:13;102242.94;;;-5.72;56.77
12182;BME280;6154;51.550;12.138;2022-12-18T06:43:41;102253.91;;;-5.78;56.22
12182;BME280;6154;51.550;12.138;2022-12-18T06:46:20;102252.78;;;-5.85;56.00
12182;BME280;6154;51.550;12.138;2022-12-18T06:50:13;102255.00;;;-5.94;55.75
12182;BME280;6154;51.550;12.138;2022-12-18T07:26:16;102257.22;;;-6.22;57.56
12182;BME280;6154;51.550;12.138;2022-12-18T07:30:25;102251.75;;;-6.11;57.77
12182;BME280;6154;51.550;12.138;2022-12-18T07:34:25;102252.84;;;-6.04;57.24
12182;BME280;6154;51.550;12.138;2022-12-18T07:52:37;102285.31;;;-5.45;57.76
12182;BME280;6154;51.550;12.138;2022-12-18T07:55:13;102297.97;;;-5.30;57.91
12182;BME280;6154;51.550;12.138;2022-12-18T08:04:10;102296.84;;;-4.92;57.71
12182;BME280;6154;51.550;12.138;2022-12-18T08:52:01;102314.72;;;-3.80;57.19
12182;BME280;6154;51.550;12.138;2022-12-18T08:54:32;102317.66;;;-3.69;56.92
12182;BME280;6154;51.550;12.138;2022-12-18T08:57:01;102316.66;;;-3.73;56.62
12182;BME280;6154;51.550;12.138;2022-12-18T08:59:29;102325.31;;;-3.72;56.71
12182;BME280;6154;51.550;12.138;2022-12-18T09:01:59;102323.50;;;-3.75;57.00
12182;BME280;6154;51.550;12.138;2022-12-18T09:04:29;102317.41;;;-3.77;56.94
12182;BME280;6154;51.550;12.138;2022-12-18T09:06:57;102326.13;;;-3.73;57.15
12182;BME280;6154;51.550;12.138;2022-12-18T09:09:28;102326.72;;;-3.57;57.33
12182;BME280;6154;51.550;12.138;2022-12-18T09:11:57;102327.03;;;-3.48;57.26
12182;BME280;6154;51.550;12.138;2022-12-18T09:14:26;102322.97;;;-3.39;57.13
12182;BME280;6154;51.550;12.138;2022-12-18T09:16:57;102329.44;;;-3.27;57.23
12182;BME280;6154;51.550;12.138;2022-12-18T09:19:26;102332.56;;;-3.10;57.25
12182;BME280;6154;51.550;12.138;2022-12-18T09:22:02;102325.22;;;-2.96;57.09
12182;BME280;6154;51.550;12.138;2022-12-18T09:24:32;102324.75;;;-2.83;56.99
12182;BME280;6154;51.550;12.138;2022-12-18T09:27:01;102323.44;;;-2.70;56.98
12182;BME280;6154;51.550;12.138;2022-12-18T09:29:30;102326.41;;;-2.56;56.90
12182;BME280;6154;51.550;12.138;2022-12-18T09:31:58;102316.31;;;-2.47;56.84
12182;BME280;6154;51.550;12.138;2022-12-18T09:34:26;102301.16;;;-2.34;56.86
12182;BME280;6154;51.550;12.138;2022-12-18T09:36:57;102295.50;;;-2.20;56.89
12182;BME280;6154;51.550;12.138;2022-12-18T09:39:26;102288.94;;;-2.06;56.86
12182;BME280;6154;51.550;12.138;2022-12-18T09:41:57;102297.13;;;-1.91;56.93
12182;BME280;6154;51.550;12.138;2022-12-18T09:44:32;102291.53;;;-1.73;56.87
12182;BME280;6154;51.550;12.138;2022-12-18T09:47:25;102285.03;;;-1.57;56.88
12182;BME280;6154;51.550;12.138;2022-12-18T09:50:00;102279.31;;;-1.42;56.49
12182;BME280;6154;51.550;12.138;2022-12-18T09:52:33;102274.44;;;-1.30;56.57
12182;BME280;6154;51.550;12.138;2022-12-18T09:55:09;102270.41;;;-1.18;56.59
12182;BME280;6154;51.550;12.138;2022-12-18T09:57:51;102268.13;;;-1.02;56.53
12182;BME280;6154;51.550;12.138;2022-12-18T10:00:23;102272.78;;;-0.89;56.33
12182;BME280;6154;51.550;12.138;2022-12-18T10:02:53;102260.87;;;-0.78;56.15
12182;BME280;6154;51.550;12.138;2022-12-18T10:05:34;102262.88;;;-0.65;56.29
12182;BME280;6154;51.550;12.138;2022-12-18T10:08:11;102260.47;;;-0.55;56.17
12182;BME280;6154;51.550;12.138;2022-12-18T10:10:47;102243.37;;;-0.44;56.13
12182;BME280;6154;51.550;12.138;2022-12-18T10:13:23;102245.28;;;-0.34;56.13
12182;BME280;6154;51.550;12.138;2022-12-18T10:16:03;102239.44;;;-0.22;55.97
12182;BME280;6154;51.550;12.138;2022-12-18T10:18:48;102237.88;;;-0.13;55.72
12182;BME280;6154;51.550;12.138;2022-12-18T10:21:20;102240.63;;;-0.05;55.22
12182;BME280;6154;51.550;12.138;2022-12-18T10:23:55;102231.31;;;0.09;55.41
12182;BME280;6154;51.550;12.138;2022-12-18T10:26:31;102229.84;;;0.22;55.82
12182;BME280;6154;51.550;12.138;2022-12-18T10:29:08;102230.03;;;0.34;56.03
12182;BME280;6154;51.550;12.138;2022-12-18T10:31:42;102237.97;;;0.42;56.21
12182;BME280;6154;51.550;12.138;2022-12-18T10:34:12;102239.87;;;0.53;56.24
12182;BME280;6154;51.550;12.138;2022-12-18T10:36:41;102238.28;;;0.62;56.13
12182;BME280;6154;51.550;12.138;2022-12-18T10:39:17;102241.91;;;0.71;55.76
12182;BME280;6154;51.550;12.138;2022-12-18T10:41:46;102234.16;;;0.79;56.04
12182;BME280;6154;51.550;12.138;2022-12-18T10:44:18;102230.81;;;0.88;56.02
12182;BME280;6154;51.550;12.138;2022-12-18T10:46:49;102236.91;;;0.90;56.04
12182;BME280;6154;51.550;12.138;2022-12-18T10:49:21;102230.97;;;1.00;56.25
12182;BME280;6154;51.550;12.138;2022-12-18T10:51:51;102234.53;;;1.05;56.04
12182;BME280;6154;51.550;12.138;2022-12-18T10:54:33;102235.44;;;1.08;56.05
12182;BME280;6154;51.550;12.138;2022-12-18T10:57:17;102230.22;;;1.08;56.18
12182;BME280;6154;51.550;12.138;2022-12-18T10:59:52;102239.87;;;1.12;56.21
12182;BME280;6154;51.550;12.138;2022-12-18T11:02:27;102233.78;;;1.13;56.33
12182;BME280;6154;51.550;12.138;2022-12-18T11:05:02;102232.97;;;1.18;56.45
12182;BME280;6154;51.550;12.138;2022-12-18T11:07:47;102240.00;;;1.22;56.48
12182;BME280;6154;51.550;12.138;2022-12-18T11:10:18;102234.81;;;1.26;56.32
12182;BME280;6154;51.550;12.138;2022-12-18T11:12:47;102225.28;;;1.30;56.45
12182;BME280;6154;51.550;12.138;2022-12-18T11:15:20;102234.03;;;1.32;56.29
12182;BME280;6154;51.550;12.138;2022-12-18T11:17:50;102237.50;;;1.31;56.08
12182;BME280;6154;51.550;12.138;2022-12-18T11:20:24;102248.84;;;1.36;56.30
12182;BME280;6154;51.550;12.138;2022-12-18T11:22:56;102246.31;;;1.40;56.22
12182;BME280;6154;51.550;12.138;2022-12-18T11:25:28;102242.84;;;1.43;56.26
12182;BME280;6154;51.550;12.138;2022-12-18T11:28:03;102241.13;;;1.43;56.17
12182;BME280;6154;51.550;12.138;2022-12-18T11:30:35;102238.56;;;1.48;56.23
12182;BME280;6154;51.550;12.138;2022-12-18T11:33:05;102240.28;;;1.49;56.17
12182;BME280;6154;51.550;12.138;2022-12-18T11:35:44;102253.41;;;1.54;56.15
12182;BME280;6154;51.550;12.138;2022-12-18T11:38:20;102251.72;;;1.59;56.18
12182;BME280;6154;51.550;12.138;2022-12-18T11:40:56;102257.00;;;1.62;56.05
12182;BME280;6154;51.550;12.138;2022-12-18T11:43:29;102248.31;;;1.64;56.11
12182;BME280;6154;51.550;12.138;2022-12-18T11:46:05;102243.13;;;1.69;56.25
12182;BME280;6154;51.550;12.138;2022-12-18T11:48:43;102237.13;;;1.78;56.18
12182;BME280;6154;51.550;12.138;2022-12-18T11:51:25;102238.97;;;1.88;56.32
12182;BME280;6154;51.550;12.138;2022-12-18T11:53:56;102240.81;;;1.95;56.34
12182;BME280;6154;51.550;12.138;2022-12-18T11:56:30;102237.41;;;2.02;56.10
12182;BME280;6154;51.550;12.138;2022-12-18T11:59:07;102226.97;;;2.02;56.05
12182;BME280;6154;51.550;12.138;2022-12-18T12:01:47;102223.50;;;2.06;56.07
12182;BME280;6154;51.550;12.138;2022-12-18T12:04:34;102229.63;;;2.10;55.99
12182;BME280;6154;51.550;12.138;2022-12-18T12:07:17;102230.66;;;2.28;56.07
12182;BME280;6154;51.550;12.138;2022-12-18T12:09:57;102223.69;;;2.27;55.60
12182;BME280;6154;51.550;12.138;2022-12-18T12:12:36;102227.91;;;2.12;55.99
12182;BME280;6154;51.550;12.138;2022-12-18T12:15:26;102218.28;;;2.09;56.26
12182;BME280;6154;51.550;12.138;2022-12-18T12:18:03;102215.47;;;1.85;56.20
12182;BME280;6154;51.550;12.138;2022-12-18T12:20:47;102204.91;;;1.72;56.47
12182;BME280;6154;51.550;12.138;2022-12-18T12:23:23;102191.88;;;1.72;56.69
12182;BME280;6154;51.550;12.138;2022-12-18T12:25:58;102193.66;;;1.80;56.41
12182;BME280;6154;51.550;12.138;2022-12-18T12:28:42;102190.25;;;1.87;56.26
12182;BME280;6154;51.550;12.138;2022-12-18T12:31:26;102197.38;;;2.03;56.28
12182;BME280;6154;51.550;12.138;2022-12-18T12:34:07;102193.13;;;2.14;56.17
12182;BME280;6154;51.550;12.138;2022-12-18T12:36:49;102199.28;;;2.25;56.18
12182;BME280;6154;51.550;12.138;2022-12-18T12:39:23;102195.81;;;2.26;55.90
12182;BME280;6154;51.550;12.138;2022-12-18T12:41:55;102207.16;;;2.30;56.13
12182;BME280;6154;51.550;12.138;2022-12-18T12:44:45;102208.06;;;2.34;56.08
12182;BME280;6154;51.550;12.138;2022-12-18T12:47:27;102207.13;;;2.27;55.82
12182;BME280;6154;51.550;12.138;2022-12-18T12:50:03;102200.19;;;2.29;55.91
12182;BME280;6154;51.550;12.138;2022-12-18T12:52:36;102196.78;;;2.39;56.08
12182;BME280;6154;51.550;12.138;2022-12-18T12:55:14;102194.25;;;2.50;56.13
12182;BME280;6154;51.550;12.138;2022-12-18T12:57:50;102181.22;;;2.56;55.64
12182;BME280;6154;51.550;12.138;2022-12-18T13:00:22;102173.44;;;2.62;55.63
12182;BME280;6154;51.550;12.138;2022-12-18T13:02:59;102159.53;;;2.69;55.66
12182;BME280;6154;51.550;12.138;2022-12-18T13:05:34;102162.19;;;2.72;55.50
12182;BME280;6154;51.550;12.138;2022-12-18T13:08:11;102163.91;;;2.73;55.29
12182;BME280;6154;51.550;12.138;2022-12-18T13:10:40;102159.56;;;2.72;54.83
12182;BME280;6154;51.550;12.138;2022-12-18T13:13:11;102155.22;;;2.73;55.18
12182;BME280;6154;51.550;12.138;2022-12-18T13:15:44;102149.94;;;2.68;55.12
12182;BME280;6154;51.550;12.138;2022-12-18T13:18:20;102147.31;;;2.64;55.10
12182;BME280;6154;51.550;12.138;2022-12-18T13:21:02;102147.25;;;2.54;55.12
12182;BME280;6154;51.550;12.138;2022-12-18T13:23:33;102153.25;;;2.37;54.51
12182;BME280;6154;51.550;12.138;2022-12-18T13:26:29;102149.75;;;2.35;55.13
12182;BME280;6154;51.550;12.138;2022-12-18T13:29:00;102164.50;;;2.28;54.93
12182;BME280;6154;51.550;12.138;2022-12-18T13:34:43;102156.47;;;2.04;54.96
12182;BME280;6154;51.550;12.138;2022-12-18T13:37:40;102163.44;;;2.01;55.46
12182;BME280;6154;51.550;12.138;2022-12-18T13:43:27;102159.72;;;1.78;55.45
12182;BME280;6154;51.550;12.138;2022-12-18T13:46:03;102157.88;;;1.66;55.66
12182;BME280;6154;51.550;12.138;2022-12-18T13:48:34;102144.72;;;1.54;55.86
12182;BME280;6154;51.550;12.138;2022-12-18T13:51:06;102139.41;;;1.42;55.96
12182;BME280;6154;51.550;12.138;2022-12-18T13:53:42;102127.94;;;1.28;55.99
12182;BME280;6154;51.550;12.138;2022-12-18T13:56:16;102133.91;;;1.18;56.02
12182;BME280;6154;51.550;12.138;2022-12-18T13:58:44;102132.88;;;1.03;56.18
12182;BME280;6154;51.550;12.138;2022-12-18T14:01:31;102129.31;;;0.95;56.61
12182;BME280;6154;51.550;12.138;2022-12-18T14:04:11;102136.25;;;0.96;56.63
12182;BME280;6154;51.550;12.138;2022-12-18T14:06:46;102133.66;;;0.96;56.79
12182;BME280;6154;51.550;12.138;2022-12-18T14:09:26;102133.62;;;0.93;56.70
12182;BME280;6154;51.550;12.138;2022-12-18T14:12:00;102135.28;;;0.88;56.81
12182;BME280;6154;51.550;12.138;2022-12-18T14:14:51;102128.31;;;0.85;57.11
12182;BME280;6154;51.550;12.138;2022-12-18T14:17:25;102139.59;;;0.83;56.96
12182;BME280;6154;51.550;12.138;2022-12-18T14:19:55;102141.31;;;0.81;57.13
12182;BME280;6154;51.550;12.138;2022-12-18T14:22:25;102136.03;;;0.78;57.08
12182;BME280;6154;51.550;12.138;2022-12-18T14:25:14;102145.53;;;0.73;57.13
12182;BME280;6154;51.550;12.138;2022-12-18T14:27:45;102142.03;;;0.71;57.03
12182;BME280;6154;51.550;12.138;2022-12-18T14:30:34;102142.84;;;0.67;57.07
12182;BME280;6154;51.550;12.138;2022-12-18T14:33:08;102134.13;;;0.63;56.98
12182;BME280;6154;51.550;12.138;2022-12-18T14:35:40;102137.44;;;0.53;57.07
12182;BME280;6154;51.550;12.138;2022-12-18T14:38:26;102133.88;;;0.46;57.07
12182;BME280;6154;51.550;12.138;2022-12-18T14:40:58;102127.69;;;0.40;57.14
12182;BME280;6154;51.550;12.138;2022-12-18T14:43:31;102115.38;;;0.28;57.28
12182;BME280;6154;51.550;12.138;2022-12-18T14:46:26;102120.44;;;0.19;57.39
12182;BME280;6154;51.550;12.138;2022-12-18T14:48:57;102125.50;;;0.10;57.49
12182;BME280;6154;51.550;12.138;2022-12-18T14:51:27;102130.69;;;0.07;57.67
12182;BME280;6154;51.550;12.138;2022-12-18T14:53:57;102134.09;;;0.03;57.71
12182;BME280;6154;51.550;12.138;2022-12-18T14:56:30;102121.00;;;-0.01;57.60
12182;BME280;6154;51.550;12.138;2022-12-18T14:59:00;102125.19;;;-0.12;57.81
12182;BME280;6154;51.550;12.138;2022-12-18T15:01:34;102122.56;;;-0.13;57.75
12182;BME280;6154;51.550;12.138;2022-12-18T15:04:05;102127.69;;;-0.18;57.73
12182;BME280;6154;51.550;12.138;2022-12-18T15:07:07;102134.59;;;-0.20;57.72
12182;BME280;6154;51.550;12.138;2022-12-18T15:09:38;102133.69;;;-0.22;57.69
12182;BME280;6154;51.550;12.138;2022-12-18T15:12:28;102129.28;;;-0.26;57.85
12182;BME280;6154;51.550;12.138;2022-12-18T15:15:01;102133.62;;;-0.25;57.78
12182;BME280;6154;51.550;12.138;2022-12-18T15:17:30;102141.41;;;-0.28;57.65
12182;BME280;6154;51.550;12.138;2022-12-18T15:20:00;102140.50;;;-0.30;57.53
12182;BME280;6154;51.550;12.138;2022-12-18T15:22:30;102143.88;;;-0.34;57.57
12182;BME280;6154;51.550;12.138;2022-12-18T15:25:01;102138.69;;;-0.34;57.53
12182;BME280;6154;51.550;12.138;2022-12-18T15:27:33;102136.91;;;-0.37;57.54
12182;BME280;6154;51.550;12.138;2022-12-18T15:30:19;102125.63;;;-0.37;57.56
12182;BME280;6154;51.550;12.138;2022-12-18T15:32:49;102131.69;;;-0.38;57.62
12182;BME280;6154;51.550;12.138;2022-12-18T15:35:19;102129.06;;;-0.40;57.74
12182;BME280;6154;51.550;12.138;2022-12-18T15:37:48;102126.41;;;-0.41;57.69
12182;BME280;6154;51.550;12.138;2022-12-18T15:40:19;102116.06;;;-0.40;57.78
12182;BME280;6154;51.550;12.138;2022-12-18T15:42:52;102126.41;;;-0.41;57.71
12182;BME280;6154;51.550;12.138;2022-12-18T15:45:39;102121.09;;;-0.49;57.88
12182;BME280;6154;51.550;12.138;2022-12-18T15:48:17;102120.06;;;-0.59;58.33
12182;BME280;6154;51.550;12.138;2022-12-18T15:50:48;102115.75;;;-0.56;58.39
12182;BME280;6154;51.550;12.138;2022-12-18T15:53:17;102111.34;;;-0.61;58.41
12182;BME280;6154;51.550;12.138;2022-12-18T15:55:45;102113.06;;;-0.61;58.60
12182;BME280;6154;51.550;12.138;2022-12-18T15:58:33;102121.81;;;-0.57;58.60
12182;BME280;6154;51.550;12.138;2022-12-18T16:01:04;102114.00;;;-0.57;58.50
12182;BME280;6154;51.550;12.138;2022-12-18T16:03:32;102107.13;;;-0.54;58.43
12182;BME280;6154;51.550;12.138;2022-12-18T16:06:01;102107.16;;;-0.52;58.27
12182;BME280;6154;51.550;12.138;2022-12-18T16:08:30;102092.44;;;-0.52;58.18
12182;BME280;6154;51.550;12.138;2022-12-18T16:10:59;102105.41;;;-0.53;58.18
12182;BME280;6154;51.550;12.138;2022-12-18T16:13:28;102105.41;;;-0.53;58.04
12182;BME280;6154;51.550;12.138;2022-12-18T16:15:57;102103.66;;;-0.54;58.10
12182;BME280;6154;51.550;12.138;2022-12-18T16:18:26;102106.22;;;-0.56;58.15
12182;BME280;6154;51.550;12.138;2022-12-18T16:20:56;102101.94;;;-0.54;57.97
12182;BME280;6154;51.550;12.138;2022-12-18T16:23:26;102107.97;;;-0.55;57.92
12182;BME280;6154;51.550;12.138;2022-12-18T16:25:55;102104.50;;;-0.55;57.81
12182;BME280;6154;51.550;12.138;2022-12-18T16:28:23;102092.34;;;-0.58;57.74
12182;BME280;6154;51.550;12.138;2022-12-18T16:30:51;102091.44;;;-0.60;57.78
12182;BME280;6154;51.550;12.138;2022-12-18T16:33:21;102087.91;;;-0.64;57.85
12182;BME280;6154;51.550;12.138;2022-12-18T16:35:52;102086.97;;;-0.69;57.83
12182;BME280;6154;51.550;12.138;2022-12-18T16:38:21;102085.94;;;-0.77;57.95
12182;BME280;6154;51.550;12.138;2022-12-18T16:40:49;102080.63;;;-0.83;58.04
12182;BME280;6154;51.550;12.138;2022-12-18T16:43:35;102076.94;;;-0.94;58.15
12182;BME280;6154;51.550;12.138;2022-12-18T16:46:04;102064.50;;;-1.10;58.48
12182;BME280;6154;51.550;12.138;2022-12-18T16:48:39;102061.97;;;-1.07;58.51
12182;BME280;6154;51.550;12.138;2022-12-18T16:51:29;102050.69;;;-1.09;58.49
12182;BME280;6154;51.550;12.138;2022-12-18T16:53:57;102046.44;;;-1.06;58.46
12182;BME280;6154;51.550;12.138;2022-12-18T16:56:38;102039.47;;;-1.08;58.48
12182;BME280;6154;51.550;12.138;2022-12-18T16:59:06;102042.09;;;-1.05;58.48
12182;BME280;6154;51.550;12.138;2022-12-18T17:01:36;102040.44;;;-1.00;58.49
12182;BME280;6154;51.550;12.138;2022-12-18T17:14:41;102014.56;;;-0.97;58.50
12182;BME280;6154;51.550;12.138;2022-12-18T17:17:09;102019.81;;;-0.93;58.55